This is the latest recevied weather packets stored in our database for station/object KE7KUS-14. If no packets are shown the sender has not sent any weather packets the latest 10 day(s).
| Time | Temp. | Humidity | Pressure | Rain* | Wind** | Luminosity | Snow |
|---|---|---|---|---|---|---|---|
| 1777399331 | 18.33° C | 14% | 1028.6 hPa | 0 mm | - | 695 W/m² | - |
| 1777398161 | 17.22° C | 13% | 1028.7 hPa | 0 mm | - | 714 W/m² | - |
| 1777392119 | 16.11° C | 15% | 1028.4 hPa | 0 mm | - | 621 W/m² | - |
| 1777391470 | 16.11° C | 15% | 1028.3 hPa | 0 mm | - | 569 W/m² | - |
| 1777390301 | 15.56° C | 17% | 1028.3 hPa | 0 mm | - | 502 W/m² | - |
| 1777386728 | 14.44° C | 19% | 1028 hPa | 0 mm | - | 248 W/m² | - |
| 1777385495 | 13.89° C | 20% | 1028 hPa | 0 mm | - | 192 W/m² | - |
| 1777384910 | 12.22° C | 24% | 1027.8 hPa | 0 mm | - | 157 W/m² | - |
| 1777380100 | 3.89° C | 37% | 1027 hPa | 0 mm | - | 12 W/m² | - |
| 1777378284 | 3.89° C | 36% | 1026.5 hPa | 0 mm | - | 0 W/m² | - |
| 1777377698 | 3.89° C | 36% | 1026.2 hPa | 0 mm | - | 0 W/m² | - |
| 1777375927 | 4.44° C | 35% | 1025.8 hPa | 0 mm | - | 0 W/m² | - |
| 1777375277 | 4.44° C | 35% | 1025.7 hPa | 0 mm | - | 0 W/m² | - |
| 1777374108 | 3.89° C | 36% | 1025.6 hPa | 0 mm | - | 0 W/m² | - |
| 1777371121 | 5° C | 36% | 1025.7 hPa | 0 mm | - | 0 W/m² | - |
| 1777369322 | 5.56° C | 33% | 1025.8 hPa | 0 mm | - | 0 W/m² | - |
| 1777363324 | 7.22° C | 31% | 1025.7 hPa | 0 mm | - | 0 W/m² | - |
| 1777360922 | 6.67° C | 31% | 1025.9 hPa | 0 mm | - | 0 W/m² | - |
| 1777357932 | 7.22° C | 32% | 1025.8 hPa | 0 mm | - | 0 W/m² | - |
| 1777357347 | 7.22° C | 32% | 1025.8 hPa | 0 mm | - | 0 W/m² | - |
| 1777354311 | 7.22° C | 33% | 1025.6 hPa | 0 mm | - | 0 W/m² | - |
| 1777353707 | 7.22° C | 33% | 1025.5 hPa | 0 mm | - | 0 W/m² | - |
| 1777351294 | 7.22° C | 34% | 1025.4 hPa | 0 mm | - | 0 W/m² | - |
| 1777350728 | 8.33° C | 32% | 1025.4 hPa | 0 mm | - | 0 W/m² | - |
| 1777348305 | 8.33° C | 31% | 1025.2 hPa | 0 mm | - | 0 W/m² | - |
* Rain latest hour (hover to see other rain measurements)
** Current wind speed in m/s (hover to see current wind gust speed)